LECF weather

Calaf-Sallavinera Airport
Sant Pere Sallavinera, Catalonia, Spain

Public forecast

Using degrees Celsius for public forecast. Weather courtesy of forecast.io.

METAR (pilot weather report)

Closest report is Sabadell Airport, 28.0 nm (51.9 km) ESE. Retrieved 2019/09/21 09:30 UTC (25 minutes ago):

LELL 210930Z VRB02KT 9999 SCT005 BKN025 21/20 Q1015

TAF (pilot weather forecast)

Closest forecast is Sabadell Airport, 28.0 nm (51.9 km) ESE. Retrieved 2019/09/21 09:29 UTC (26 minutes ago):

TAF LELL 210800Z 2109/2209 03008KT 9999 BKN030 TX24/2113Z TN18/2205Z TEMPO 2109/2120 3000 TSRA BKN020 SCT025CB PROB40 TEMPO 2109/2116 VRB10G20KT 1500 +TSRA BKN010 SCT020CB TEMPO 2112/2115 14010KT BECMG 2116/2118 VRB03KT